Time;durP1;ratioP1;P1;durP2;ratioP2;P2;SDS_P1;SDS_P2;PMS_P1;PMS_P2;Temp;Humidity;BMP_temperature;BMP_pressure;BME280_temperature;BME280_humidity;BME280_pressure;Samples;Min_cycle;Max_cycle;Signal;HPM_P1;HPM_P2
2023/07/03 00:00:18;;;;;;;7.60;4.80;;;;;;;18.63;100.00;92278.69;4946042;29;20027;-79
2023/07/03 00:02:49;;;;;;;10.32;5.30;;;;;;;18.65;100.00;92278.34;4942762;29;20043;-78
2023/07/03 00:05:16;;;;;;;10.15;5.03;;;;;;;18.63;100.00;92265.44;4944359;29;20036;-78
2023/07/03 00:07:41;;;;;;;9.93;5.53;;;;;;;18.67;100.00;92265.53;4945374;29;20042;-78
2023/07/03 00:10:08;;;;;;;8.00;5.25;;;;;;;18.64;100.00;92269.63;4944437;29;20048;-78
2023/07/03 00:12:34;;;;;;;7.38;4.95;;;;;;;18.62;100.00;92263.91;4942678;29;20095;-78
2023/07/03 00:15:00;;;;;;;7.85;5.25;;;;;;;18.62;100.00;92268.41;4945084;29;20090;-79
2023/07/03 00:17:26;;;;;;;9.25;5.18;;;;;;;18.63;100.00;92267.31;4944220;29;20036;-79
2023/07/03 00:19:52;;;;;;;10.23;5.22;;;;;;;18.60;100.00;92263.47;4944580;29;20043;-78
2023/07/03 00:22:17;;;;;;;8.45;5.10;;;;;;;18.57;100.00;92263.38;4944709;29;20067;-78
2023/07/03 00:24:43;;;;;;;7.70;5.28;;;;;;;18.56;100.00;92264.50;4945168;29;20046;-79
2023/07/03 00:27:08;;;;;;;9.55;5.00;;;;;;;18.50;100.00;92264.72;4940106;29;20119;-79
2023/07/03 00:29:34;;;;;;;8.98;5.20;;;;;;;18.48;100.00;92261.63;4943269;29;20036;-79
2023/07/03 00:32:01;;;;;;;9.15;5.05;;;;;;;18.45;100.00;92262.31;4944221;29;20040;-78
2023/07/03 00:34:27;;;;;;;10.07;5.30;;;;;;;18.44;100.00;92255.50;4941051;29;20040;-79
2023/07/03 00:36:54;;;;;;;8.02;4.70;;;;;;;18.40;100.00;92262.59;4944499;29;20470;-78
2023/07/03 00:39:20;;;;;;;10.50;5.00;;;;;;;18.36;100.00;92253.78;4942987;29;20024;-79
2023/07/03 00:41:46;;;;;;;7.28;4.65;;;;;;;18.35;100.00;92254.09;4927626;29;20044;-78
2023/07/03 00:44:15;;;;;;;9.43;4.85;;;;;;;18.30;100.00;92249.81;4944012;29;20053;-78
2023/07/03 00:46:44;;;;;;;7.30;4.15;;;;;;;18.28;100.00;92254.69;4943783;29;20035;-78
2023/07/03 00:49:10;;;;;;;8.27;4.18;;;;;;;18.27;100.00;92255.81;4942350;29;20032;-78
2023/07/03 00:51:40;;;;;;;6.78;4.20;;;;;;;18.25;100.00;92253.50;4957835;29;20110;-78
2023/07/03 00:54:05;;;;;;;7.28;4.15;;;;;;;18.23;100.00;92254.94;4944398;29;20700;-79
2023/07/03 00:56:31;;;;;;;8.00;3.95;;;;;;;18.24;100.00;92253.84;4943112;29;20039;-78
2023/07/03 00:58:57;;;;;;;7.55;4.07;;;;;;;18.23;100.00;92254.94;4943549;29;20046;-78
2023/07/03 01:01:36;;;;;;;8.52;4.07;;;;;;;18.23;100.00;92258.34;4941984;29;20047;-78
2023/07/03 01:04:10;;;;;;;7.38;4.00;;;;;;;18.23;100.00;92257.59;4942801;29;20525;-78
2023/07/03 01:06:46;;;;;;;9.07;4.22;;;;;;;18.24;100.00;92259.16;4941793;29;20163;-78
2023/07/03 01:09:14;;;;;;;7.15;3.90;;;;;;;18.24;100.00;92257.25;4942864;29;20031;-78
2023/07/03 01:11:43;;;;;;;6.40;3.92;;;;;;;18.24;100.00;92261.78;4942384;29;20056;-78
2023/07/03 01:14:10;;;;;;;7.53;4.00;;;;;;;18.23;100.00;92260.25;4942181;29;20032;-78
2023/07/03 01:16:36;;;;;;;11.23;3.88;;;;;;;18.24;100.00;92259.16;4939121;29;20102;-78
2023/07/03 01:19:08;;;;;;;8.02;4.32;;;;;;;18.27;100.00;92261.09;4940193;29;20556;-78
2023/07/03 01:21:44;;;;;;;6.93;4.10;;;;;;;18.30;100.00;92263.84;4940983;29;20501;-78
2023/07/03 01:24:14;;;;;;;9.05;4.05;;;;;;;18.37;100.00;92270.44;4942251;29;20326;-78
2023/07/03 01:26:43;;;;;;;9.07;4.40;;;;;;;18.36;100.00;92264.38;4941668;29;20039;-78
2023/07/03 01:29:18;;;;;;;11.15;4.97;;;;;;;18.39;100.00;92268.97;4938862;29;20102;-78
2023/07/03 01:31:45;;;;;;;7.78;3.90;;;;;;;18.36;100.00;92261.72;4941964;29;20039;-78
2023/07/03 01:34:12;;;;;;;9.65;4.50;;;;;;;18.35;100.00;92272.66;4941410;29;20044;-78
2023/07/03 01:36:39;;;;;;;9.13;4.18;;;;;;;18.28;100.00;92267.94;4945816;29;20123;-79
2023/07/03 01:39:06;;;;;;;6.80;3.88;;;;;;;18.26;100.00;92265.66;4941664;29;20040;-78
2023/07/03 01:41:32;;;;;;;6.60;3.80;;;;;;;18.23;100.00;92258.34;4941755;29;20512;-79
2023/07/03 01:43:58;;;;;;;6.07;3.50;;;;;;;18.26;100.00;92259.56;4941956;29;20095;-78
2023/07/03 01:46:24;;;;;;;6.50;3.63;;;;;;;18.27;100.00;92261.09;4943160;29;20426;-78
2023/07/03 01:48:49;;;;;;;5.57;3.10;;;;;;;18.35;100.00;92262.06;4942341;29;20070;-78
2023/07/03 01:51:22;;;;;;;6.63;4.03;;;;;;;18.38;99.06;92259.50;4942199;29;20054;-79
2023/07/03 01:54:14;;;;;;;6.05;3.38;;;;;;;18.42;100.00;92252.41;4943101;29;20027;-78
2023/07/03 01:56:44;;;;;;;5.68;3.25;;;;;;;18.39;100.00;92253.06;4941291;29;20557;-78
2023/07/03 01:59:17;;;;;;;6.28;3.63;;;;;;;18.30;100.00;92249.81;4943101;29;20050;-78
2023/07/03 02:02:17;;;;;;;6.40;3.25;;;;;;;18.23;100.00;92254.94;4942821;29;20245;-78
2023/07/03 02:04:57;;;;;;;6.55;3.70;;;;;;;18.12;100.00;92253.88;4950788;29;20043;-78
2023/07/03 02:07:24;;;;;;;5.47;3.40;;;;;;;18.01;100.00;92254.38;4942898;29;20048;-78
2023/07/03 02:09:51;;;;;;;6.30;3.80;;;;;;;17.94;100.00;92256.81;4923586;29;20040;-78
2023/07/03 02:12:17;;;;;;;6.43;3.72;;;;;;;17.84;100.00;92255.44;4940645;29;20446;-79
2023/07/03 02:14:43;;;;;;;6.07;3.58;;;;;;;17.79;100.00;92258.28;4941950;29;20185;-78
2023/07/03 02:17:09;;;;;;;6.90;4.38;;;;;;;17.72;100.00;92246.72;4940987;29;20063;-79
2023/07/03 02:19:35;;;;;;;7.55;3.58;;;;;;;17.66;100.00;92254.91;4942938;29;20031;-78
2023/07/03 02:22:01;;;;;;;6.53;3.45;;;;;;;17.58;100.00;92252.38;4942686;29;20031;-79
2023/07/03 02:24:27;;;;;;;8.23;3.63;;;;;;;17.48;100.00;92253.63;4942487;29;20079;-78
2023/07/03 02:26:53;;;;;;;7.55;3.92;;;;;;;17.43;100.00;92259.16;4958491;28;20044;-78
2023/07/03 02:29:19;;;;;;;6.85;3.92;;;;;;;17.39;100.00;92260.91;4940745;29;20077;-79
2023/07/03 02:31:45;;;;;;;8.88;4.00;;;;;;;17.38;100.00;92254.06;4941046;29;20047;-78
2023/07/03 02:34:10;;;;;;;9.73;4.63;;;;;;;17.37;100.00;92247.25;4942330;29;20068;-78
2023/07/03 02:36:37;;;;;;;9.60;4.60;;;;;;;17.36;100.00;92251.78;4943386;29;20035;-78
2023/07/03 02:39:07;;;;;;;7.65;4.03;;;;;;;17.28;100.00;92256.06;4942998;29;20043;-78
2023/07/03 02:41:34;;;;;;;7.57;4.07;;;;;;;17.29;100.00;92256.84;4941467;29;20474;-79
2023/07/03 02:44:00;;;;;;;8.90;4.28;;;;;;;17.28;100.00;92261.38;4941605;29;20051;-78
2023/07/03 02:46:29;;;;;;;7.80;4.35;;;;;;;17.27;100.00;92249.25;4942648;29;20451;-79
2023/07/03 02:48:55;;;;;;;7.00;4.32;;;;;;;17.26;100.00;92250.34;4941674;29;20043;-78
2023/07/03 02:51:20;;;;;;;8.38;4.57;;;;;;;17.26;100.00;92247.69;4941720;29;20451;-78
2023/07/03 02:53:48;;;;;;;7.57;4.35;;;;;;;17.26;100.00;92246.94;4933696;29;20514;-78
2023/07/03 02:56:15;;;;;;;10.18;4.75;;;;;;;17.27;100.00;92259.84;4941561;29;20035;-78
2023/07/03 02:58:43;;;;;;;7.95;4.25;;;;;;;17.25;100.00;92250.69;4941742;29;20090;-79
2023/07/03 03:01:12;;;;;;;8.77;4.90;;;;;;;17.23;100.00;92253.66;4941252;29;20040;-78
2023/07/03 03:03:38;;;;;;;7.50;4.38;;;;;;;17.21;100.00;92247.94;4941288;29;20035;-78
2023/07/03 03:06:05;;;;;;;8.63;4.53;;;;;;;17.20;100.00;92246.41;4940956;29;20047;-78
2023/07/03 03:08:30;;;;;;;8.10;4.70;;;;;;;17.19;100.00;92242.19;4940516;29;20035;-79
2023/07/03 03:10:56;;;;;;;8.63;4.60;;;;;;;17.19;100.00;92249.38;4939320;29;20059;-78
2023/07/03 03:13:21;;;;;;;7.00;4.20;;;;;;;17.18;100.00;92248.59;4949917;29;20063;-78
2023/07/03 03:15:48;;;;;;;8.30;4.50;;;;;;;17.20;100.00;92256.19;4935117;29;20482;-78
2023/07/03 03:18:13;;;;;;;7.60;4.50;;;;;;;17.19;100.00;92250.13;4942361;29;20051;-78
2023/07/03 03:20:39;;;;;;;7.15;4.10;;;;;;;17.21;100.00;92247.16;4941363;29;20429;-78
2023/07/03 03:23:05;;;;;;;8.07;4.28;;;;;;;17.20;100.00;92249.03;4941112;29;20070;-79
2023/07/03 03:25:31;;;;;;;7.55;4.20;;;;;;;17.21;100.00;92252.47;4940847;29;20082;-78
2023/07/03 03:27:57;;;;;;;7.45;4.28;;;;;;;17.19;100.00;92247.50;4941914;29;20040;-78
2023/07/03 03:30:24;;;;;;;7.50;4.28;;;;;;;17.21;100.00;92244.53;4938715;29;20024;-78
2023/07/03 03:32:50;;;;;;;7.63;4.22;;;;;;;17.20;100.00;92251.69;4945280;28;20055;-78
2023/07/03 03:35:16;;;;;;;9.73;4.05;;;;;;;17.18;100.00;92243.31;4943261;29;20043;-78
2023/07/03 03:37:41;;;;;;;8.13;4.38;;;;;;;17.18;100.00;92247.81;4938332;29;20047;-78
2023/07/03 03:40:09;;;;;;;6.68;3.60;;;;;;;17.15;100.00;92246.59;4938183;29;20095;-78
2023/07/03 03:42:36;;;;;;;8.30;3.90;;;;;;;17.12;100.00;92239.34;4925752;29;20032;-79
2023/07/03 03:45:02;;;;;;;7.93;4.10;;;;;;;17.10;100.00;92236.25;4958017;28;20102;-78
2023/07/03 03:47:28;;;;;;;9.38;4.13;;;;;;;17.10;100.00;92232.84;4951956;28;20492;-78
2023/07/03 03:49:55;;;;;;;8.32;4.35;;;;;;;17.06;100.00;92235.38;4946131;29;20087;-78
2023/07/03 03:52:20;;;;;;;7.18;4.07;;;;;;;17.05;100.00;92241.78;4944716;29;20032;-78
2023/07/03 03:54:46;;;;;;;6.78;4.38;;;;;;;17.06;100.00;92236.13;4940645;29;20402;-78
2023/07/03 03:57:13;;;;;;;6.97;4.40;;;;;;;17.04;100.00;92243.66;4936170;29;20067;-79
2023/07/03 03:59:39;;;;;;;7.03;4.28;;;;;;;17.05;100.00;92236.50;4943905;29;20082;-78
2023/07/03 04:02:05;;;;;;;7.65;4.10;;;;;;;17.06;100.00;92244.06;4946206;29;20042;-78
2023/07/03 04:04:31;;;;;;;12.13;4.45;;;;;;;17.06;100.00;92241.44;4943917;29;20044;-79
2023/07/03 04:06:56;;;;;;;7.75;4.20;;;;;;;17.11;100.00;92247.59;4945368;29;20042;-78
2023/07/03 04:09:22;;;;;;;7.93;4.50;;;;;;;17.14;100.00;92260.94;4945171;29;20039;-78
2023/07/03 04:11:48;;;;;;;7.15;4.47;;;;;;;17.20;100.00;92262.28;4960027;28;20454;-79
2023/07/03 04:14:15;;;;;;;6.95;4.50;;;;;;;17.23;100.00;92253.66;4964761;28;20039;-79
2023/07/03 04:16:40;;;;;;;7.95;4.40;;;;;;;17.26;100.00;92254.88;4959558;28;20030;-78
2023/07/03 04:19:06;;;;;;;7.60;4.70;;;;;;;17.30;100.00;92257.63;4961581;29;20058;-79
2023/07/03 04:21:32;;;;;;;7.90;4.68;;;;;;;17.34;100.00;92247.91;4961057;29;20055;-78
2023/07/03 04:23:57;;;;;;;8.25;4.60;;;;;;;17.41;100.00;92256.06;4963628;29;20031;-79
2023/07/03 04:26:23;;;;;;;8.88;4.75;;;;;;;17.44;100.00;92244.81;4955593;28;20050;-77
2023/07/03 04:28:49;;;;;;;8.25;4.60;;;;;;;17.50;100.00;92248.78;4955087;28;20090;-77
2023/07/03 04:31:14;;;;;;;9.38;4.60;;;;;;;17.50;100.00;92246.13;4955144;28;20082;-76
2023/07/03 04:33:42;;;;;;;7.95;4.63;;;;;;;17.50;100.00;92246.13;4955486;28;20441;-76
2023/07/03 04:36:11;;;;;;;10.07;4.70;;;;;;;17.55;100.00;92250.41;4939353;28;20082;-77
2023/07/03 04:38:39;;;;;;;8.30;4.72;;;;;;;17.56;100.00;92250.09;4953944;29;20162;-77
2023/07/03 04:41:05;;;;;;;9.25;5.00;;;;;;;17.56;100.00;92250.09;4956410;28;20066;-77
2023/07/03 04:43:31;;;;;;;10.77;4.80;;;;;;;17.58;100.00;92247.84;4954897;29;20039;-78
2023/07/03 04:46:02;;;;;;;7.40;4.85;;;;;;;17.60;100.00;92245.66;4954630;28;20385;-77
2023/07/03 04:48:28;;;;;;;7.55;5.07;;;;;;;17.64;100.00;92246.53;4955904;28;20047;-77
2023/07/03 04:50:54;;;;;;;6.85;4.53;;;;;;;17.72;100.00;92255.44;4970799;28;20525;-77
2023/07/03 04:53:23;;;;;;;9.15;5.03;;;;;;;17.79;100.00;92260.19;4953575;29;20039;-77
2023/07/03 04:55:49;;;;;;;10.70;4.60;;;;;;;17.85;100.00;92266.78;4954534;28;20062;-77
2023/07/03 04:58:15;;;;;;;7.35;4.70;;;;;;;17.92;100.00;92268.84;4953451;28;20042;-77
2023/07/03 05:00:40;;;;;;;8.57;4.80;;;;;;;17.99;100.00;92267.19;4954678;28;20421;-77
2023/07/03 05:03:07;;;;;;;7.10;4.60;;;;;;;18.07;100.00;92279.50;4954484;28;20050;-77
2023/07/03 05:05:33;;;;;;;7.45;4.47;;;;;;;18.11;100.00;92279.59;4953472;28;20035;-77
2023/07/03 05:07:59;;;;;;;8.00;4.47;;;;;;;18.41;100.00;92277.38;4953028;29;20035;-77
2023/07/03 05:10:24;;;;;;;7.65;4.47;;;;;;;18.39;100.00;92276.94;4954538;28;20087;-77
2023/07/03 05:12:50;;;;;;;8.60;4.30;;;;;;;18.38;100.00;92282.59;4953289;29;20079;-77
2023/07/03 05:15:18;;;;;;;9.80;4.50;;;;;;;18.34;100.00;92277.19;4954368;28;20039;-77
2023/07/03 05:17:48;;;;;;;7.15;4.47;;;;;;;18.34;100.00;92281.72;4952877;29;20393;-77
2023/07/03 05:20:15;;;;;;;7.88;4.65;;;;;;;18.31;100.00;92277.88;4954350;29;20098;-77
2023/07/03 05:22:43;;;;;;;7.55;4.60;;;;;;;18.33;100.00;92288.91;4954260;28;20547;-77
2023/07/03 05:25:10;;;;;;;8.65;4.75;;;;;;;18.30;100.00;92292.22;4954285;28;20039;-77
2023/07/03 05:27:37;;;;;;;10.70;4.50;;;;;;;18.34;100.00;92302.91;4952943;29;20042;-77
2023/07/03 05:30:03;;;;;;;6.95;4.32;;;;;;;18.33;100.00;92302.16;4952839;29;20042;-77
2023/07/03 05:32:29;;;;;;;7.05;4.40;;;;;;;18.34;100.00;92297.63;4953061;29;20039;-77
2023/07/03 05:34:55;;;;;;;9.68;4.55;;;;;;;18.37;100.00;92297.69;4953153;28;20043;-77
2023/07/03 05:37:21;;;;;;;7.63;4.80;;;;;;;18.39;100.00;92298.13;4952765;29;20097;-78
2023/07/03 05:39:49;;;;;;;8.05;5.10;;;;;;;18.42;100.00;92296.72;4936839;29;20131;-77
2023/07/03 05:42:18;;;;;;;8.35;4.95;;;;;;;18.57;100.00;92298.59;4953906;28;20047;-77
2023/07/03 05:44:45;;;;;;;9.90;5.13;;;;;;;18.75;100.00;92303.59;4952638;28;20113;-77
2023/07/03 05:47:12;;;;;;;7.63;4.63;;;;;;;18.64;100.00;92308.59;4952669;29;20039;-77
2023/07/03 05:49:38;;;;;;;7.70;4.90;;;;;;;18.72;100.00;92307.69;4952595;28;20043;-77
2023/07/03 05:52:04;;;;;;;8.35;4.95;;;;;;;19.08;100.00;92312.00;4953667;28;20540;-77
2023/07/03 05:54:29;;;;;;;9.15;5.28;;;;;;;19.89;100.00;92313.44;4953800;28;20035;-77
2023/07/03 05:57:10;;;;;;;10.80;4.63;;;;;;;20.24;100.00;92307.31;4952612;28;20397;-77
2023/07/03 05:59:37;;;;;;;8.30;4.20;;;;;;;20.52;100.00;92320.38;4952797;29;20557;-77
2023/07/03 06:02:06;;;;;;;13.00;5.15;;;;;;;20.42;100.00;92324.34;4953790;28;20402;-77
2023/07/03 06:04:33;;;;;;;8.13;4.30;;;;;;;21.45;100.00;92334.53;4951789;29;20041;-77
2023/07/03 06:06:59;;;;;;;7.45;4.65;;;;;;;22.11;100.00;92333.19;4954068;28;20043;-77
2023/07/03 06:09:27;;;;;;;10.18;4.82;;;;;;;22.46;100.00;92326.78;4954407;28;20068;-77
2023/07/03 06:11:53;;;;;;;8.93;4.78;;;;;;;22.92;100.00;92331.84;4954675;28;20047;-77
2023/07/03 06:14:19;;;;;;;7.07;4.00;;;;;;;22.71;100.00;92332.38;4970262;28;20121;-77
2023/07/03 06:16:47;;;;;;;7.68;5.13;;;;;;;22.20;100.00;92336.34;4953786;28;20039;-77
2023/07/03 06:19:14;;;;;;;7.53;4.90;;;;;;;22.13;100.00;92341.56;4955088;28;20039;-77
2023/07/03 06:21:40;;;;;;;8.93;4.82;;;;;;;22.32;100.00;92338.06;4970159;28;20031;-77
2023/07/03 06:24:09;;;;;;;10.25;4.78;;;;;;;21.83;100.00;92344.22;4954556;29;20045;-77
2023/07/03 06:26:35;;;;;;;7.78;4.50;;;;;;;21.18;100.00;92342.44;4971338;28;20477;-78
2023/07/03 06:29:02;;;;;;;9.82;5.40;;;;;;;20.52;100.00;92345.06;4955605;28;20063;-78
2023/07/03 06:31:28;;;;;;;10.73;5.75;;;;;;;20.00;100.00;92338.34;4954960;29;20035;-77
2023/07/03 06:33:54;;;;;;;10.38;5.43;;;;;;;19.87;100.00;92340.34;4955576;29;20045;-77
2023/07/03 06:36:21;;;;;;;15.70;6.25;;;;;;;19.88;100.00;92341.13;4952995;28;20031;-77
2023/07/03 06:38:58;;;;;;;13.00;5.57;;;;;;;19.96;100.00;92340.16;4953335;29;20036;-77
2023/07/03 06:41:26;;;;;;;11.43;5.40;;;;;;;20.16;100.00;92349.69;4937241;29;20105;-77
2023/07/03 06:43:52;;;;;;;12.20;5.35;;;;;;;20.17;100.00;92347.78;4954245;29;20065;-77
2023/07/03 06:46:18;;;;;;;7.13;4.60;;;;;;;20.38;100.00;92355.44;4955238;28;20039;-77
2023/07/03 06:48:44;;;;;;;9.57;5.35;;;;;;;20.17;100.00;92350.44;4953730;28;20122;-77
2023/07/03 06:51:12;;;;;;;7.90;4.68;;;;;;;20.03;100.00;92345.63;4953799;29;20114;-77
2023/07/03 06:53:38;;;;;;;8.77;4.95;;;;;;;20.03;100.00;92342.19;4952975;29;20125;-77
2023/07/03 06:56:05;;;;;;;9.10;4.85;;;;;;;20.28;100.00;92345.34;4953068;28;20089;-77
2023/07/03 06:58:32;;;;;;;7.85;5.00;;;;;;;20.44;100.00;92348.72;4955022;29;20039;-77
2023/07/03 07:00:57;;;;;;;9.00;4.90;;;;;;;20.60;100.00;92348.66;4956626;28;20031;-77
2023/07/03 07:03:24;;;;;;;9.07;5.72;;;;;;;20.69;100.00;92343.91;4956513;29;20413;-77
2023/07/03 07:05:53;;;;;;;9.60;4.90;;;;;;;21.03;100.00;92340.69;4954602;28;20036;-77
2023/07/03 07:08:18;;;;;;;8.43;4.93;;;;;;;21.26;100.00;92338.78;4953493;28;20036;-77
2023/07/03 07:10:44;;;;;;;7.68;4.97;;;;;;;21.37;100.00;92349.63;4953688;28;20061;-77
2023/07/03 07:13:11;;;;;;;8.10;5.00;;;;;;;21.42;100.00;92347.44;4953792;28;20493;-77
2023/07/03 07:15:38;;;;;;;8.75;4.28;;;;;;;21.63;100.00;92347.00;4955095;28;20040;-77
2023/07/03 07:18:05;;;;;;;8.07;5.03;;;;;;;21.11;100.00;92337.78;4954507;28;20130;-77
2023/07/03 07:20:39;;;;;;;10.93;5.72;;;;;;;20.96;100.00;92343.97;4954633;28;20493;-77
2023/07/03 07:23:06;;;;;;;7.70;5.32;;;;;;;21.05;100.00;92343.75;4957412;28;20109;-77
2023/07/03 07:25:34;;;;;;;11.77;5.30;;;;;;;21.08;100.00;92337.75;4956898;28;20433;-77
2023/07/03 07:28:00;;;;;;;7.85;4.93;;;;;;;21.15;100.00;92337.84;4957412;29;20134;-77
2023/07/03 07:30:26;;;;;;;8.43;5.05;;;;;;;21.65;100.00;92332.56;4958836;28;20400;-77
2023/07/03 07:32:52;;;;;;;11.52;5.28;;;;;;;21.84;100.00;92335.09;4958317;29;20106;-78
2023/07/03 07:35:18;;;;;;;10.50;4.93;;;;;;;21.73;100.00;92331.53;4959974;28;20043;-76
2023/07/03 07:37:43;;;;;;;9.43;4.55;;;;;;;21.57;100.00;92337.00;4957850;29;20410;-77
2023/07/03 07:40:10;;;;;;;8.85;4.80;;;;;;;21.34;100.00;92335.09;4958715;28;20138;-77
2023/07/03 07:42:37;;;;;;;8.25;4.85;;;;;;;21.20;100.00;92340.22;4958147;28;20055;-77
2023/07/03 07:45:03;;;;;;;7.32;4.63;;;;;;;21.09;100.00;92349.91;4959575;28;20507;-78
2023/07/03 07:47:29;;;;;;;9.20;5.53;;;;;;;21.20;100.00;92345.53;4959421;29;20097;-77
2023/07/03 07:49:58;;;;;;;7.05;4.55;;;;;;;21.36;100.00;92348.06;4960234;29;20130;-78
2023/07/03 07:52:24;;;;;;;10.60;5.25;;;;;;;21.31;100.00;92351.03;4974963;28;20126;-78
2023/07/03 07:54:57;;;;;;;9.05;5.30;;;;;;;21.20;100.00;92350.84;4955822;28;20039;-77
2023/07/03 07:57:23;;;;;;;8.95;4.50;;;;;;;21.25;100.00;92347.13;4955676;29;20032;-77
2023/07/03 07:59:50;;;;;;;7.78;4.60;;;;;;;21.13;100.00;92348.84;4956758;28;20098;-77
2023/07/03 08:02:15;;;;;;;9.63;4.85;;;;;;;21.09;100.00;92353.34;4972986;28;20062;-78
2023/07/03 08:04:42;;;;;;;8.55;4.78;;;;;;;21.49;95.28;92357.44;4957927;28;20174;-78
2023/07/03 08:07:08;;;;;;;9.82;5.00;;;;;;;21.54;100.00;92354.47;4957854;29;20050;-77
2023/07/03 08:09:33;;;;;;;12.13;5.53;;;;;;;21.69;100.00;92360.78;4957426;29;20051;-78
2023/07/03 08:12:03;;;;;;;9.18;5.65;;;;;;;21.39;100.00;92358.78;4956704;29;20039;-78
2023/07/03 08:14:28;;;;;;;10.45;5.28;;;;;;;21.34;100.00;92351.06;4977986;28;20039;-78
2023/07/03 08:16:55;;;;;;;13.70;5.03;;;;;;;21.37;100.00;92361.03;4960264;28;20418;-80
2023/07/03 08:19:20;;;;;;;7.63;4.82;;;;;;;21.91;100.00;92353.88;4960858;29;20043;-79
2023/07/03 08:21:46;;;;;;;9.25;4.80;;;;;;;21.72;100.00;92360.06;4958860;28;20112;-79
2023/07/03 08:24:11;;;;;;;10.88;5.10;;;;;;;21.85;100.00;92363.28;4962569;28;20051;-80
2023/07/03 08:26:37;;;;;;;9.68;4.95;;;;;;;21.75;100.00;92362.03;4960067;28;20043;-81
2023/07/03 08:29:03;;;;;;;12.00;5.32;;;;;;;21.79;100.00;92367.38;4960235;28;20064;-79
2023/07/03 08:31:29;;;;;;;9.52;5.55;;;;;;;21.65;100.00;92370.59;4961462;28;20077;-80
2023/07/03 08:33:55;;;;;;;8.50;4.65;;;;;;;21.54;100.00;92369.69;4956855;29;20395;-80
2023/07/03 08:36:22;;;;;;;11.30;4.95;;;;;;;21.49;100.00;92365.44;4954669;28;20054;-81
2023/07/03 08:38:48;;;;;;;8.85;4.75;;;;;;;21.55;100.00;92366.66;4960200;28;20035;-81
2023/07/03 08:41:14;;;;;;;11.38;5.43;;;;;;;21.24;100.00;92367.66;4975435;28;20043;-82
2023/07/03 08:43:50;;;;;;;13.30;5.32;;;;;;;21.56;100.00;92362.88;4961556;28;20127;-79
2023/07/03 08:46:24;;;;;;;7.53;4.22;;;;;;;21.73;100.00;92366.94;4977000;28;20469;-79
2023/07/03 08:48:54;;;;;;;11.43;5.35;;;;;;;21.72;100.00;92360.06;4963827;29;20055;-80
2023/07/03 08:51:23;;;;;;;9.18;4.82;;;;;;;21.69;100.00;92358.13;4962233;28;20034;-83
2023/07/03 08:53:54;;;;;;;8.60;4.93;;;;;;;21.62;100.00;92360.69;4959923;29;20031;-82
2023/07/03 08:56:23;;;;;;;11.13;4.85;;;;;;;21.70;100.00;92367.63;4962986;28;20063;-82
2023/07/03 08:58:56;;;;;;;9.27;5.18;;;;;;;21.67;100.00;92363.03;4960439;28;20051;-82
2023/07/03 09:01:50;;;;;;;9.35;4.95;;;;;;;22.15;100.00;92360.66;4975068;28;20043;-81
2023/07/03 09:04:31;;;;;;;8.98;4.60;;;;;;;22.07;100.00;92372.34;4972865;28;20027;-83
2023/07/03 09:07:01;;;;;;;11.90;4.85;;;;;;;22.36;100.00;92362.88;4960439;28;20031;-82
2023/07/03 09:09:29;;;;;;;11.57;4.72;;;;;;;22.49;100.00;92363.38;4969766;28;20038;-81
2023/07/03 09:12:05;;;;;;;17.45;5.60;;;;;;;22.73;100.00;92372.81;4961949;28;20051;-80
2023/07/03 09:14:38;;;;;;;13.32;4.70;;;;;;;22.82;100.00;92359.94;4958327;29;20869;-81
2023/07/03 09:17:09;;;;;;;9.63;4.50;;;;;;;22.82;100.00;92359.19;4961434;29;20073;-81
2023/07/03 09:19:37;;;;;;;8.90;4.72;;;;;;;22.97;100.00;92355.53;4963202;28;20031;-81
2023/07/03 09:22:07;;;;;;;10.20;4.60;;;;;;;22.91;100.00;92362.31;4958891;29;20050;-81
2023/07/03 09:24:43;;;;;;;11.10;5.10;;;;;;;23.01;100.00;92353.69;4973771;28;20106;-82
2023/07/03 09:27:15;;;;;;;13.05;4.50;;;;;;;23.12;100.00;92351.09;4955643;28;20035;-81
2023/07/03 09:29:41;;;;;;;8.95;4.65;;;;;;;22.96;100.00;92366.56;4963627;29;20027;-81
2023/07/03 09:32:07;;;;;;;10.02;4.50;;;;;;;23.10;100.00;92365.97;4965385;28;20089;-82
2023/07/03 09:35:01;;;;;;;8.80;4.32;;;;;;;23.25;100.00;92364.97;4963074;28;20039;-82
2023/07/03 09:37:27;;;;;;;11.27;4.38;;;;;;;23.34;100.00;92359.31;4951519;29;20039;-82
2023/07/03 09:39:53;;;;;;;10.02;4.47;;;;;;;23.24;100.00;92363.44;4964536;28;20095;-82
2023/07/03 09:42:21;;;;;;;9.45;4.70;;;;;;;23.38;100.00;92363.56;4940546;28;20043;-83
2023/07/03 09:44:49;;;;;;;11.48;4.55;;;;;;;23.55;100.00;92361.38;4970580;28;20047;-82
2023/07/03 09:47:41;;;;;;;9.15;4.15;;;;;;;23.74;100.00;92368.41;4961327;29;20027;-80
2023/07/03 09:50:08;;;;;;;10.50;4.43;;;;;;;23.51;100.00;92364.06;4962779;28;20043;-82
2023/07/03 09:52:45;;;;;;;8.60;4.55;;;;;;;23.17;100.00;92366.81;4974915;28;20071;-82
2023/07/03 09:55:11;;;;;;;9.90;4.78;;;;;;;23.34;100.00;92362.75;4959379;28;20043;-82
2023/07/03 09:57:38;;;;;;;9.52;4.10;;;;;;;23.40;100.00;92361.28;4976878;28;20043;-81
2023/07/03 10:00:25;;;;;;;9.38;4.75;;;;;;;23.26;100.00;92361.94;4961816;29;20058;-83
2023/07/03 10:02:54;;;;;;;10.18;5.05;;;;;;;23.34;100.00;92364.66;4964161;29;20478;-83
2023/07/03 10:05:34;;;;;;;9.60;5.28;;;;;;;23.68;100.00;92358.06;4963866;28;20027;-84
2023/07/03 10:08:06;;;;;;;8.40;3.90;;;;;;;23.56;100.00;92358.34;4963331;29;20046;-85
2023/07/03 10:10:34;;;;;;;11.13;5.18;;;;;;;23.83;100.00;92355.53;4963568;29;20055;-84
2023/07/03 10:13:07;;;;;;;12.02;5.22;;;;;;;23.70;100.00;92363.03;4963671;28;20039;-83
2023/07/03 10:15:39;;;;;;;9.15;4.75;;;;;;;23.83;100.00;92358.19;4962192;28;20038;-84
2023/07/03 10:18:11;;;;;;;;;;;;;;;23.91;100.00;92357.09;4965213;28;20051;-84
2023/07/03 10:20:41;;;;;;;12.10;5.37;;;;;;;23.68;97.22;92370.66;4964867;28;19944;-84
2023/07/03 10:23:10;;;;;;;9.93;4.68;;;;;;;23.84;96.55;92357.81;4965280;28;20333;-82
2023/07/03 10:25:47;;;;;;;8.18;4.13;;;;;;;23.89;100.00;92365.50;4964547;28;20019;-83
2023/07/03 10:28:28;;;;;;;17.65;5.93;;;;;;;23.76;97.27;92355.50;4962832;29;20635;-83
2023/07/03 10:30:59;;;;;;;8.18;4.32;;;;;;;23.59;100.00;92368.28;4962452;29;20035;-82
2023/07/03 10:33:38;;;;;;;10.15;5.05;;;;;;;23.76;98.52;92372.28;4959662;29;20023;-83
2023/07/03 10:36:06;;;;;;;11.85;5.00;;;;;;;23.82;100.00;92365.47;4960290;28;20035;-83
2023/07/03 10:38:57;;;;;;;10.20;5.10;;;;;;;23.71;99.98;92367.25;4962838;29;20147;-86
2023/07/03 10:41:34;;;;;;;11.75;5.10;;;;;;;23.89;100.00;92365.50;4964365;29;20035;-83
2023/07/03 10:44:15;;;;;;;14.40;4.95;;;;;;;24.10;100.00;92372.13;4976113;28;20035;-83
2023/07/03 10:46:53;;;;;;;11.20;4.88;;;;;;;23.98;99.66;92373.19;4960490;28;20027;-83
2023/07/03 10:49:33;;;;;;;9.75;5.40;;;;;;;24.07;97.43;92359.47;4962160;28;20102;-83
2023/07/03 10:52:15;;;;;;;10.18;5.50;;;;;;;24.02;100.00;92370.53;4978580;28;20047;-81
2023/07/03 10:54:46;;;;;;;11.73;5.75;;;;;;;24.12;100.00;92361.81;4949820;28;20036;-83
2023/07/03 10:57:21;;;;;;;9.63;4.78;;;;;;;23.70;100.00;92368.38;4968992;28;20065;-82
2023/07/03 10:59:53;;;;;;;13.48;5.90;;;;;;;23.42;100.00;92361.69;4961903;28;20035;-81
2023/07/03 11:02:34;;;;;;;11.55;5.55;;;;;;;23.72;100.00;92360.75;4960084;29;20052;-81
2023/07/03 11:05:19;;;;;;;10.02;5.18;;;;;;;23.82;100.00;92362.00;4963160;28;20039;-82
2023/07/03 11:08:16;;;;;;;9.68;5.05;;;;;;;23.44;100.00;92354.06;4968854;29;20074;-81
2023/07/03 11:10:53;;;;;;;11.23;5.35;;;;;;;23.34;100.00;92352.06;4967115;28;20598;-83
2023/07/03 11:14:01;;;;;;;11.60;6.18;;;;;;;23.66;100.00;92356.91;4984132;28;20027;-80
2023/07/03 11:16:40;;;;;;;13.02;4.97;;;;;;;23.31;100.00;92347.47;4943388;29;20047;-81
2023/07/03 11:19:38;;;;;;;15.60;5.85;;;;;;;23.18;100.00;92351.56;4963167;28;20038;-83
2023/07/03 11:22:12;;;;;;;12.55;5.70;;;;;;;23.11;100.00;92359.50;4956191;29;20039;-82
2023/07/03 11:25:20;;;;;;;10.02;5.60;;;;;;;22.95;100.00;92362.38;4964468;28;20083;-82
2023/07/03 11:28:15;;;;;;;14.10;5.97;;;;;;;23.16;100.00;92361.84;4880739;29;20040;-79
2023/07/03 11:30:42;;;;;;;10.20;5.93;;;;;;;23.14;100.00;92356.84;4963906;28;20069;-79
2023/07/03 11:33:09;;;;;;;11.40;6.10;;;;;;;23.07;100.00;92352.22;4965028;28;20058;-81